sensor_id;sensor_type;location;lat;lon;timestamp;P1;durP1;ratioP1;P2;durP2;ratioP2
16727;SDS011;8482;54.396;18.590;2023-10-13T00:00:28;7.22;;;2.17;;
16727;SDS011;8482;54.396;18.590;2023-10-13T00:03:01;7.80;;;2.50;;
16727;SDS011;8482;54.396;18.590;2023-10-13T00:05:28;8.98;;;2.60;;
16727;SDS011;8482;54.396;18.590;2023-10-13T00:07:59;8.15;;;2.50;;
16727;SDS011;8482;54.396;18.590;2023-10-13T00:10:30;9.90;;;2.65;;
16727;SDS011;8482;54.396;18.590;2023-10-13T00:12:58;10.52;;;2.45;;
16727;SDS011;8482;54.396;18.590;2023-10-13T00:15:37;8.90;;;2.75;;
16727;SDS011;8482;54.396;18.590;2023-10-13T00:18:21;9.48;;;1.83;;
16727;SDS011;8482;54.396;18.590;2023-10-13T00:20:52;7.35;;;2.60;;
16727;SDS011;8482;54.396;18.590;2023-10-13T00:23:21;7.90;;;2.30;;
16727;SDS011;8482;54.396;18.590;2023-10-13T00:25:50;9.75;;;2.40;;
16727;SDS011;8482;54.396;18.590;2023-10-13T00:28:25;8.38;;;2.00;;
16727;SDS011;8482;54.396;18.590;2023-10-13T00:31:00;9.38;;;2.88;;
16727;SDS011;8482;54.396;18.590;2023-10-13T00:33:35;8.27;;;2.17;;
16727;SDS011;8482;54.396;18.590;2023-10-13T00:36:03;9.00;;;2.00;;
16727;SDS011;8482;54.396;18.590;2023-10-13T00:38:30;5.90;;;1.95;;
16727;SDS011;8482;54.396;18.590;2023-10-13T00:40:57;9.18;;;2.15;;
16727;SDS011;8482;54.396;18.590;2023-10-13T00:43:31;6.97;;;2.20;;
16727;SDS011;8482;54.396;18.590;2023-10-13T00:46:00;8.70;;;1.75;;
16727;SDS011;8482;54.396;18.590;2023-10-13T00:48:31;6.97;;;1.98;;
16727;SDS011;8482;54.396;18.590;2023-10-13T00:51:11;10.02;;;2.45;;
16727;SDS011;8482;54.396;18.590;2023-10-13T00:53:57;7.28;;;2.05;;
16727;SDS011;8482;54.396;18.590;2023-10-13T00:56:32;8.48;;;2.60;;
16727;SDS011;8482;54.396;18.590;2023-10-13T00:59:05;8.43;;;2.30;;
16727;SDS011;8482;54.396;18.590;2023-10-13T01:01:34;10.75;;;2.30;;
16727;SDS011;8482;54.396;18.590;2023-10-13T01:04:01;7.55;;;2.10;;
16727;SDS011;8482;54.396;18.590;2023-10-13T01:06:30;7.75;;;2.08;;
16727;SDS011;8482;54.396;18.590;2023-10-13T01:09:00;9.13;;;2.30;;
16727;SDS011;8482;54.396;18.590;2023-10-13T01:11:43;6.00;;;1.88;;
16727;SDS011;8482;54.396;18.590;2023-10-13T01:14:19;10.48;;;2.63;;
16727;SDS011;8482;54.396;18.590;2023-10-13T01:16:48;7.25;;;2.35;;
16727;SDS011;8482;54.396;18.590;2023-10-13T01:19:18;4.57;;;1.75;;
16727;SDS011;8482;54.396;18.590;2023-10-13T01:21:49;9.50;;;2.70;;
16727;SDS011;8482;54.396;18.590;2023-10-13T01:24:22;6.43;;;2.00;;
16727;SDS011;8482;54.396;18.590;2023-10-13T01:26:49;9.05;;;2.58;;
16727;SDS011;8482;54.396;18.590;2023-10-13T01:29:18;8.63;;;2.20;;
16727;SDS011;8482;54.396;18.590;2023-10-13T01:31:44;6.13;;;1.90;;
16727;SDS011;8482;54.396;18.590;2023-10-13T01:34:15;9.05;;;2.47;;
16727;SDS011;8482;54.396;18.590;2023-10-13T01:36:48;6.75;;;2.05;;
16727;SDS011;8482;54.396;18.590;2023-10-13T01:39:16;8.35;;;2.30;;
16727;SDS011;8482;54.396;18.590;2023-10-13T01:41:44;6.70;;;2.22;;
16727;SDS011;8482;54.396;18.590;2023-10-13T01:44:10;9.95;;;2.78;;
16727;SDS011;8482;54.396;18.590;2023-10-13T01:46:39;6.22;;;2.33;;
16727;SDS011;8482;54.396;18.590;2023-10-13T01:49:07;5.95;;;2.28;;
16727;SDS011;8482;54.396;18.590;2023-10-13T01:51:33;7.53;;;2.63;;
16727;SDS011;8482;54.396;18.590;2023-10-13T01:53:59;7.45;;;1.83;;
16727;SDS011;8482;54.396;18.590;2023-10-13T01:56:28;8.00;;;2.10;;
16727;SDS011;8482;54.396;18.590;2023-10-13T01:58:56;7.30;;;2.10;;
16727;SDS011;8482;54.396;18.590;2023-10-13T02:01:22;8.05;;;2.10;;
16727;SDS011;8482;54.396;18.590;2023-10-13T02:03:57;8.32;;;2.28;;
16727;SDS011;8482;54.396;18.590;2023-10-13T02:06:27;10.25;;;2.70;;
16727;SDS011;8482;54.396;18.590;2023-10-13T02:08:58;9.80;;;2.50;;
16727;SDS011;8482;54.396;18.590;2023-10-13T02:11:50;6.70;;;2.17;;
16727;SDS011;8482;54.396;18.590;2023-10-13T02:14:22;13.70;;;2.33;;
16727;SDS011;8482;54.396;18.590;2023-10-13T02:16:50;8.90;;;2.33;;
16727;SDS011;8482;54.396;18.590;2023-10-13T02:19:37;6.32;;;2.03;;
16727;SDS011;8482;54.396;18.590;2023-10-13T02:22:09;7.75;;;2.28;;
16727;SDS011;8482;54.396;18.590;2023-10-13T02:24:37;10.10;;;2.55;;
16727;SDS011;8482;54.396;18.590;2023-10-13T02:27:06;6.57;;;2.42;;
16727;SDS011;8482;54.396;18.590;2023-10-13T02:29:41;7.57;;;2.28;;
16727;SDS011;8482;54.396;18.590;2023-10-13T02:32:10;8.90;;;2.53;;
16727;SDS011;8482;54.396;18.590;2023-10-13T02:34:47;9.13;;;2.22;;
16727;SDS011;8482;54.396;18.590;2023-10-13T02:37:13;7.22;;;2.38;;
16727;SDS011;8482;54.396;18.590;2023-10-13T02:39:39;8.52;;;2.60;;
16727;SDS011;8482;54.396;18.590;2023-10-13T02:42:08;11.93;;;2.78;;
16727;SDS011;8482;54.396;18.590;2023-10-13T02:44:46;7.78;;;2.35;;
16727;SDS011;8482;54.396;18.590;2023-10-13T02:47:12;11.23;;;2.60;;
16727;SDS011;8482;54.396;18.590;2023-10-13T02:49:39;7.28;;;2.20;;
16727;SDS011;8482;54.396;18.590;2023-10-13T02:52:09;5.28;;;2.05;;
16727;SDS011;8482;54.396;18.590;2023-10-13T02:54:41;11.00;;;2.28;;
16727;SDS011;8482;54.396;18.590;2023-10-13T02:57:15;6.28;;;2.13;;
16727;SDS011;8482;54.396;18.590;2023-10-13T02:59:41;7.30;;;1.88;;
16727;SDS011;8482;54.396;18.590;2023-10-13T03:02:12;6.75;;;1.92;;
16727;SDS011;8482;54.396;18.590;2023-10-13T03:04:51;5.65;;;2.20;;
16727;SDS011;8482;54.396;18.590;2023-10-13T03:07:29;7.30;;;2.05;;
16727;SDS011;8482;54.396;18.590;2023-10-13T03:09:56;10.73;;;2.47;;
16727;SDS011;8482;54.396;18.590;2023-10-13T03:12:26;6.72;;;1.88;;
16727;SDS011;8482;54.396;18.590;2023-10-13T03:14:58;9.00;;;2.10;;
16727;SDS011;8482;54.396;18.590;2023-10-13T03:17:36;9.85;;;2.42;;
16727;SDS011;8482;54.396;18.590;2023-10-13T03:20:06;8.82;;;2.88;;
16727;SDS011;8482;54.396;18.590;2023-10-13T03:22:36;6.43;;;2.28;;
16727;SDS011;8482;54.396;18.590;2023-10-13T03:25:02;8.68;;;2.10;;
16727;SDS011;8482;54.396;18.590;2023-10-13T03:27:30;6.55;;;2.15;;
16727;SDS011;8482;54.396;18.590;2023-10-13T03:30:25;8.32;;;2.00;;
16727;SDS011;8482;54.396;18.590;2023-10-13T03:33:11;6.65;;;1.88;;
16727;SDS011;8482;54.396;18.590;2023-10-13T03:35:39;8.60;;;2.53;;
16727;SDS011;8482;54.396;18.590;2023-10-13T03:38:17;9.73;;;2.33;;
16727;SDS011;8482;54.396;18.590;2023-10-13T03:40:47;9.40;;;2.63;;
16727;SDS011;8482;54.396;18.590;2023-10-13T03:43:30;7.70;;;1.92;;
16727;SDS011;8482;54.396;18.590;2023-10-13T03:45:56;7.78;;;2.17;;
16727;SDS011;8482;54.396;18.590;2023-10-13T03:48:33;6.88;;;2.13;;
16727;SDS011;8482;54.396;18.590;2023-10-13T03:51:05;9.27;;;2.72;;
16727;SDS011;8482;54.396;18.590;2023-10-13T03:53:38;7.80;;;2.72;;
16727;SDS011;8482;54.396;18.590;2023-10-13T03:56:17;5.47;;;1.90;;
16727;SDS011;8482;54.396;18.590;2023-10-13T03:59:04;6.82;;;2.38;;
16727;SDS011;8482;54.396;18.590;2023-10-13T04:01:34;4.75;;;1.75;;
16727;SDS011;8482;54.396;18.590;2023-10-13T04:04:24;7.15;;;2.15;;
16727;SDS011;8482;54.396;18.590;2023-10-13T04:06:56;6.78;;;2.30;;
16727;SDS011;8482;54.396;18.590;2023-10-13T04:09:30;7.22;;;1.98;;
16727;SDS011;8482;54.396;18.590;2023-10-13T04:14:31;8.18;;;2.55;;
16727;SDS011;8482;54.396;18.590;2023-10-13T04:17:25;9.57;;;2.10;;
16727;SDS011;8482;54.396;18.590;2023-10-13T04:19:52;8.65;;;2.22;;
16727;SDS011;8482;54.396;18.590;2023-10-13T04:22:36;7.07;;;2.20;;
16727;SDS011;8482;54.396;18.590;2023-10-13T04:25:13;8.88;;;2.30;;
16727;SDS011;8482;54.396;18.590;2023-10-13T04:28:02;6.40;;;2.35;;
16727;SDS011;8482;54.396;18.590;2023-10-13T04:30:45;7.28;;;2.20;;
16727;SDS011;8482;54.396;18.590;2023-10-13T04:33:28;7.47;;;2.53;;
16727;SDS011;8482;54.396;18.590;2023-10-13T04:36:01;7.03;;;2.22;;
16727;SDS011;8482;54.396;18.590;2023-10-13T04:38:44;5.75;;;2.00;;
16727;SDS011;8482;54.396;18.590;2023-10-13T04:41:33;6.10;;;2.10;;
16727;SDS011;8482;54.396;18.590;2023-10-13T04:44:23;7.57;;;2.53;;
16727;SDS011;8482;54.396;18.590;2023-10-13T04:47:08;7.13;;;1.88;;
16727;SDS011;8482;54.396;18.590;2023-10-13T04:49:42;6.50;;;2.10;;
16727;SDS011;8482;54.396;18.590;2023-10-13T04:52:12;7.88;;;2.33;;
16727;SDS011;8482;54.396;18.590;2023-10-13T04:54:51;8.52;;;2.00;;
16727;SDS011;8482;54.396;18.590;2023-10-13T04:57:24;7.18;;;2.47;;
16727;SDS011;8482;54.396;18.590;2023-10-13T05:00:01;7.03;;;2.55;;
16727;SDS011;8482;54.396;18.590;2023-10-13T05:02:35;11.25;;;2.72;;
16727;SDS011;8482;54.396;18.590;2023-10-13T05:05:03;7.65;;;1.90;;
16727;SDS011;8482;54.396;18.590;2023-10-13T05:07:39;8.00;;;2.22;;
16727;SDS011;8482;54.396;18.590;2023-10-13T05:10:25;7.32;;;2.13;;
16727;SDS011;8482;54.396;18.590;2023-10-13T05:13:09;6.97;;;2.10;;
16727;SDS011;8482;54.396;18.590;2023-10-13T05:15:53;3.97;;;1.60;;
16727;SDS011;8482;54.396;18.590;2023-10-13T05:18:38;8.52;;;1.80;;
16727;SDS011;8482;54.396;18.590;2023-10-13T05:21:23;7.65;;;2.03;;
16727;SDS011;8482;54.396;18.590;2023-10-13T05:24:07;6.22;;;2.13;;
16727;SDS011;8482;54.396;18.590;2023-10-13T05:26:52;6.40;;;1.80;;
16727;SDS011;8482;54.396;18.590;2023-10-13T05:29:40;6.53;;;1.90;;
16727;SDS011;8482;54.396;18.590;2023-10-13T05:32:26;7.85;;;2.25;;
16727;SDS011;8482;54.396;18.590;2023-10-13T05:35:11;8.02;;;1.95;;
16727;SDS011;8482;54.396;18.590;2023-10-13T05:37:57;6.22;;;1.85;;
16727;SDS011;8482;54.396;18.590;2023-10-13T05:40:55;7.05;;;2.50;;
16727;SDS011;8482;54.396;18.590;2023-10-13T05:43:41;8.25;;;1.95;;
16727;SDS011;8482;54.396;18.590;2023-10-13T05:46:26;6.97;;;2.17;;
16727;SDS011;8482;54.396;18.590;2023-10-13T05:48:55;8.82;;;2.33;;
16727;SDS011;8482;54.396;18.590;2023-10-13T05:51:21;6.10;;;2.33;;
16727;SDS011;8482;54.396;18.590;2023-10-13T05:54:05;6.93;;;2.28;;
16727;SDS011;8482;54.396;18.590;2023-10-13T05:59:32;7.65;;;2.42;;
16727;SDS011;8482;54.396;18.590;2023-10-13T06:02:19;8.82;;;2.60;;
16727;SDS011;8482;54.396;18.590;2023-10-13T06:05:05;7.85;;;2.13;;
16727;SDS011;8482;54.396;18.590;2023-10-13T06:07:52;9.13;;;2.42;;
16727;SDS011;8482;54.396;18.590;2023-10-13T06:10:37;6.63;;;2.13;;
16727;SDS011;8482;54.396;18.590;2023-10-13T06:13:22;10.82;;;2.63;;
16727;SDS011;8482;54.396;18.590;2023-10-13T06:16:07;8.13;;;2.58;;
16727;SDS011;8482;54.396;18.590;2023-10-13T06:18:54;8.25;;;3.05;;
16727;SDS011;8482;54.396;18.590;2023-10-13T06:21:38;9.05;;;2.70;;
16727;SDS011;8482;54.396;18.590;2023-10-13T06:24:23;7.53;;;2.40;;
16727;SDS011;8482;54.396;18.590;2023-10-13T06:27:07;8.80;;;2.83;;
16727;SDS011;8482;54.396;18.590;2023-10-13T06:29:51;8.07;;;2.58;;
16727;SDS011;8482;54.396;18.590;2023-10-13T06:32:20;7.82;;;2.33;;
16727;SDS011;8482;54.396;18.590;2023-10-13T06:34:54;7.00;;;2.45;;
16727;SDS011;8482;54.396;18.590;2023-10-13T06:37:24;7.05;;;3.10;;
16727;SDS011;8482;54.396;18.590;2023-10-13T06:39:51;8.23;;;2.72;;
16727;SDS011;8482;54.396;18.590;2023-10-13T06:42:25;5.18;;;2.08;;
16727;SDS011;8482;54.396;18.590;2023-10-13T06:44:57;9.50;;;2.47;;
16727;SDS011;8482;54.396;18.590;2023-10-13T06:47:25;7.95;;;3.00;;
16727;SDS011;8482;54.396;18.590;2023-10-13T06:49:52;8.38;;;3.03;;
16727;SDS011;8482;54.396;18.590;2023-10-13T06:52:22;6.93;;;2.65;;
16727;SDS011;8482;54.396;18.590;2023-10-13T06:54:52;6.82;;;2.85;;
16727;SDS011;8482;54.396;18.590;2023-10-13T06:57:18;6.95;;;2.67;;
16727;SDS011;8482;54.396;18.590;2023-10-13T06:59:47;6.82;;;2.50;;
16727;SDS011;8482;54.396;18.590;2023-10-13T07:02:14;8.07;;;2.78;;
16727;SDS011;8482;54.396;18.590;2023-10-13T07:04:49;6.18;;;2.38;;
16727;SDS011;8482;54.396;18.590;2023-10-13T07:07:36;7.03;;;2.45;;
16727;SDS011;8482;54.396;18.590;2023-10-13T07:10:10;9.80;;;2.78;;
16727;SDS011;8482;54.396;18.590;2023-10-13T07:12:40;5.85;;;2.40;;
16727;SDS011;8482;54.396;18.590;2023-10-13T07:15:08;7.78;;;2.53;;
16727;SDS011;8482;54.396;18.590;2023-10-13T07:17:41;8.77;;;2.63;;
16727;SDS011;8482;54.396;18.590;2023-10-13T07:20:10;7.20;;;2.65;;
16727;SDS011;8482;54.396;18.590;2023-10-13T07:22:49;8.50;;;2.40;;
16727;SDS011;8482;54.396;18.590;2023-10-13T07:25:29;7.97;;;2.53;;
16727;SDS011;8482;54.396;18.590;2023-10-13T07:28:00;5.25;;;2.00;;
16727;SDS011;8482;54.396;18.590;2023-10-13T07:30:33;7.28;;;2.53;;
16727;SDS011;8482;54.396;18.590;2023-10-13T07:33:35;7.40;;;1.95;;
16727;SDS011;8482;54.396;18.590;2023-10-13T07:36:07;6.65;;;2.10;;
16727;SDS011;8482;54.396;18.590;2023-10-13T07:38:49;5.15;;;1.63;;
16727;SDS011;8482;54.396;18.590;2023-10-13T07:41:25;6.80;;;2.33;;
16727;SDS011;8482;54.396;18.590;2023-10-13T07:43:55;7.88;;;2.20;;
16727;SDS011;8482;54.396;18.590;2023-10-13T07:46:24;6.53;;;2.17;;
16727;SDS011;8482;54.396;18.590;2023-10-13T07:48:58;8.43;;;3.28;;
16727;SDS011;8482;54.396;18.590;2023-10-13T07:51:36;7.93;;;2.20;;
16727;SDS011;8482;54.396;18.590;2023-10-13T07:54:12;8.77;;;2.45;;
16727;SDS011;8482;54.396;18.590;2023-10-13T07:56:46;6.72;;;2.00;;
16727;SDS011;8482;54.396;18.590;2023-10-13T07:59:13;6.65;;;1.70;;
16727;SDS011;8482;54.396;18.590;2023-10-13T08:01:42;6.10;;;1.95;;
16727;SDS011;8482;54.396;18.590;2023-10-13T08:04:10;5.28;;;1.80;;
16727;SDS011;8482;54.396;18.590;2023-10-13T08:06:37;5.60;;;1.80;;
16727;SDS011;8482;54.396;18.590;2023-10-13T08:09:08;6.88;;;2.20;;
16727;SDS011;8482;54.396;18.590;2023-10-13T08:11:37;5.28;;;1.90;;
16727;SDS011;8482;54.396;18.590;2023-10-13T08:14:04;6.45;;;1.90;;
16727;SDS011;8482;54.396;18.590;2023-10-13T08:16:42;6.60;;;2.35;;
16727;SDS011;8482;54.396;18.590;2023-10-13T08:19:15;4.80;;;1.95;;
16727;SDS011;8482;54.396;18.590;2023-10-13T08:21:46;6.15;;;2.08;;
16727;SDS011;8482;54.396;18.590;2023-10-13T08:24:39;6.18;;;2.10;;
16727;SDS011;8482;54.396;18.590;2023-10-13T08:27:06;6.85;;;2.55;;
16727;SDS011;8482;54.396;18.590;2023-10-13T08:29:51;5.63;;;2.63;;
16727;SDS011;8482;54.396;18.590;2023-10-13T08:32:23;5.25;;;2.35;;
16727;SDS011;8482;54.396;18.590;2023-10-13T08:34:54;6.00;;;2.33;;
16727;SDS011;8482;54.396;18.590;2023-10-13T08:37:24;6.80;;;2.10;;
16727;SDS011;8482;54.396;18.590;2023-10-13T08:39:58;5.70;;;2.00;;
16727;SDS011;8482;54.396;18.590;2023-10-13T08:42:37;6.35;;;2.30;;
16727;SDS011;8482;54.396;18.590;2023-10-13T08:45:07;7.28;;;2.42;;
16727;SDS011;8482;54.396;18.590;2023-10-13T08:47:49;6.93;;;2.03;;
16727;SDS011;8482;54.396;18.590;2023-10-13T08:50:32;6.03;;;2.30;;
16727;SDS011;8482;54.396;18.590;2023-10-13T08:53:18;6.82;;;2.22;;
16727;SDS011;8482;54.396;18.590;2023-10-13T08:58:32;7.68;;;2.45;;
16727;SDS011;8482;54.396;18.590;2023-10-13T09:01:19;6.57;;;2.15;;
16727;SDS011;8482;54.396;18.590;2023-10-13T09:04:12;6.30;;;2.55;;
16727;SDS011;8482;54.396;18.590;2023-10-13T09:06:43;5.03;;;2.15;;
16727;SDS011;8482;54.396;18.590;2023-10-13T09:09:30;5.18;;;2.13;;
16727;SDS011;8482;54.396;18.590;2023-10-13T09:12:12;5.18;;;2.13;;
16727;SDS011;8482;54.396;18.590;2023-10-13T09:14:43;5.80;;;2.22;;
16727;SDS011;8482;54.396;18.590;2023-10-13T09:17:22;5.95;;;2.55;;
16727;SDS011;8482;54.396;18.590;2023-10-13T09:22:53;4.50;;;2.40;;
16727;SDS011;8482;54.396;18.590;2023-10-13T09:25:27;6.47;;;2.10;;
16727;SDS011;8482;54.396;18.590;2023-10-13T09:28:01;5.68;;;2.25;;
16727;SDS011;8482;54.396;18.590;2023-10-13T09:30:46;8.80;;;2.40;;
16727;SDS011;8482;54.396;18.590;2023-10-13T09:33:22;7.88;;;2.83;;
16727;SDS011;8482;54.396;18.590;2023-10-13T09:36:02;7.32;;;3.03;;
16727;SDS011;8482;54.396;18.590;2023-10-13T09:38:33;9.25;;;2.80;;
16727;SDS011;8482;54.396;18.590;2023-10-13T09:41:04;7.93;;;3.00;;
16727;SDS011;8482;54.396;18.590;2023-10-13T09:43:57;8.07;;;3.00;;
16727;SDS011;8482;54.396;18.590;2023-10-13T09:46:25;10.52;;;3.05;;
16727;SDS011;8482;54.396;18.590;2023-10-13T09:48:58;7.60;;;2.40;;
16727;SDS011;8482;54.396;18.590;2023-10-13T09:51:39;8.05;;;2.33;;
16727;SDS011;8482;54.396;18.590;2023-10-13T09:54:20;6.38;;;2.85;;
16727;SDS011;8482;54.396;18.590;2023-10-13T09:57:12;6.07;;;2.35;;
16727;SDS011;8482;54.396;18.590;2023-10-13T09:59:52;6.88;;;3.20;;
16727;SDS011;8482;54.396;18.590;2023-10-13T10:03:00;6.63;;;2.03;;
16727;SDS011;8482;54.396;18.590;2023-10-13T10:05:59;5.70;;;2.78;;
16727;SDS011;8482;54.396;18.590;2023-10-13T10:08:31;5.78;;;2.15;;
16727;SDS011;8482;54.396;18.590;2023-10-13T10:19:06;5.38;;;2.33;;
16727;SDS011;8482;54.396;18.590;2023-10-13T10:21:36;7.85;;;2.90;;
16727;SDS011;8482;54.396;18.590;2023-10-13T10:24:02;7.03;;;3.00;;
16727;SDS011;8482;54.396;18.590;2023-10-13T10:26:50;6.53;;;2.58;;
16727;SDS011;8482;54.396;18.590;2023-10-13T10:29:17;6.28;;;2.50;;
16727;SDS011;8482;54.396;18.590;2023-10-13T10:31:43;6.65;;;2.67;;
16727;SDS011;8482;54.396;18.590;2023-10-13T10:34:14;5.95;;;2.50;;
16727;SDS011;8482;54.396;18.590;2023-10-13T10:36:46;7.88;;;3.35;;
16727;SDS011;8482;54.396;18.590;2023-10-13T10:39:18;7.65;;;2.75;;
16727;SDS011;8482;54.396;18.590;2023-10-13T10:41:44;7.47;;;3.05;;
16727;SDS011;8482;54.396;18.590;2023-10-13T10:44:16;7.70;;;2.30;;
16727;SDS011;8482;54.396;18.590;2023-10-13T10:47:09;6.10;;;2.15;;
16727;SDS011;8482;54.396;18.590;2023-10-13T10:49:58;6.03;;;2.08;;
16727;SDS011;8482;54.396;18.590;2023-10-13T10:52:32;5.25;;;1.90;;
16727;SDS011;8482;54.396;18.590;2023-10-13T10:55:04;5.65;;;2.00;;
16727;SDS011;8482;54.396;18.590;2023-10-13T10:57:38;6.55;;;2.30;;
16727;SDS011;8482;54.396;18.590;2023-10-13T11:00:29;6.13;;;2.22;;
16727;SDS011;8482;54.396;18.590;2023-10-13T11:03:10;8.52;;;2.28;;
16727;SDS011;8482;54.396;18.590;2023-10-13T11:05:46;5.13;;;2.05;;
16727;SDS011;8482;54.396;18.590;2023-10-13T11:08:24;7.78;;;2.08;;
16727;SDS011;8482;54.396;18.590;2023-10-13T11:10:59;4.30;;;1.75;;
16727;SDS011;8482;54.396;18.590;2023-10-13T11:13:26;4.55;;;2.00;;
16727;SDS011;8482;54.396;18.590;2023-10-13T11:15:57;5.57;;;2.35;;
16727;SDS011;8482;54.396;18.590;2023-10-13T11:18:30;4.63;;;1.77;;
16727;SDS011;8482;54.396;18.590;2023-10-13T11:21:03;5.45;;;2.00;;
16727;SDS011;8482;54.396;18.590;2023-10-13T11:23:32;5.22;;;1.90;;
16727;SDS011;8482;54.396;18.590;2023-10-13T11:26:01;4.63;;;2.05;;
16727;SDS011;8482;54.396;18.590;2023-10-13T11:28:29;4.80;;;2.35;;
16727;SDS011;8482;54.396;18.590;2023-10-13T11:30:57;3.83;;;1.85;;
16727;SDS011;8482;54.396;18.590;2023-10-13T11:33:24;6.07;;;2.00;;
16727;SDS011;8482;54.396;18.590;2023-10-13T11:35:54;6.45;;;1.90;;
16727;SDS011;8482;54.396;18.590;2023-10-13T11:38:21;4.15;;;1.90;;
16727;SDS011;8482;54.396;18.590;2023-10-13T11:40:57;6.43;;;2.35;;
16727;SDS011;8482;54.396;18.590;2023-10-13T11:43:42;7.03;;;2.42;;
16727;SDS011;8482;54.396;18.590;2023-10-13T11:46:16;7.82;;;2.50;;
16727;SDS011;8482;54.396;18.590;2023-10-13T11:49:00;5.18;;;1.98;;
16727;SDS011;8482;54.396;18.590;2023-10-13T11:51:33;8.45;;;2.45;;
16727;SDS011;8482;54.396;18.590;2023-10-13T11:54:03;5.57;;;2.28;;
16727;SDS011;8482;54.396;18.590;2023-10-13T11:56:29;6.65;;;2.50;;
16727;SDS011;8482;54.396;18.590;2023-10-13T11:58:55;5.40;;;2.30;;
16727;SDS011;8482;54.396;18.590;2023-10-13T12:01:26;5.38;;;2.58;;
16727;SDS011;8482;54.396;18.590;2023-10-13T12:04:11;6.72;;;2.55;;
16727;SDS011;8482;54.396;18.590;2023-10-13T12:06:55;7.90;;;3.38;;
16727;SDS011;8482;54.396;18.590;2023-10-13T12:09:40;6.32;;;2.75;;
16727;SDS011;8482;54.396;18.590;2023-10-13T12:12:16;5.63;;;2.80;;
16727;SDS011;8482;54.396;18.590;2023-10-13T12:14:43;7.30;;;2.90;;
16727;SDS011;8482;54.396;18.590;2023-10-13T12:17:17;6.43;;;2.60;;
16727;SDS011;8482;54.396;18.590;2023-10-13T12:19:56;7.40;;;2.80;;
16727;SDS011;8482;54.396;18.590;2023-10-13T12:22:24;5.82;;;2.60;;
16727;SDS011;8482;54.396;18.590;2023-10-13T12:24:53;6.65;;;2.88;;
16727;SDS011;8482;54.396;18.590;2023-10-13T12:27:20;6.82;;;3.05;;
16727;SDS011;8482;54.396;18.590;2023-10-13T12:30:00;8.60;;;3.10;;
16727;SDS011;8482;54.396;18.590;2023-10-13T12:32:33;5.30;;;2.83;;
16727;SDS011;8482;54.396;18.590;2023-10-13T12:34:59;7.15;;;2.85;;
16727;SDS011;8482;54.396;18.590;2023-10-13T12:37:32;9.25;;;3.55;;
16727;SDS011;8482;54.396;18.590;2023-10-13T12:40:04;6.65;;;3.08;;
16727;SDS011;8482;54.396;18.590;2023-10-13T12:42:51;8.32;;;4.28;;
16727;SDS011;8482;54.396;18.590;2023-10-13T12:45:39;7.30;;;3.45;;
16727;SDS011;8482;54.396;18.590;2023-10-13T12:48:24;6.32;;;3.20;;
16727;SDS011;8482;54.396;18.590;2023-10-13T12:51:08;6.75;;;3.40;;
16727;SDS011;8482;54.396;18.590;2023-10-13T12:54:05;7.13;;;3.53;;
16727;SDS011;8482;54.396;18.590;2023-10-13T12:56:43;8.52;;;3.60;;
16727;SDS011;8482;54.396;18.590;2023-10-13T12:59:09;7.28;;;3.20;;
16727;SDS011;8482;54.396;18.590;2023-10-13T13:01:38;8.00;;;3.45;;
16727;SDS011;8482;54.396;18.590;2023-10-13T13:04:09;7.03;;;4.05;;
16727;SDS011;8482;54.396;18.590;2023-10-13T13:06:57;8.95;;;4.15;;
16727;SDS011;8482;54.396;18.590;2023-10-13T13:09:22;7.85;;;4.20;;
16727;SDS011;8482;54.396;18.590;2023-10-13T13:11:52;6.90;;;3.90;;
16727;SDS011;8482;54.396;18.590;2023-10-13T13:14:22;9.48;;;4.20;;
16727;SDS011;8482;54.396;18.590;2023-10-13T13:16:57;7.32;;;3.70;;
16727;SDS011;8482;54.396;18.590;2023-10-13T13:19:32;9.07;;;4.57;;
16727;SDS011;8482;54.396;18.590;2023-10-13T13:22:06;10.25;;;4.60;;
16727;SDS011;8482;54.396;18.590;2023-10-13T13:24:41;10.48;;;4.32;;
16727;SDS011;8482;54.396;18.590;2023-10-13T13:27:11;9.32;;;5.30;;
16727;SDS011;8482;54.396;18.590;2023-10-13T13:29:42;9.25;;;4.82;;
16727;SDS011;8482;54.396;18.590;2023-10-13T13:32:09;9.23;;;4.72;;
16727;SDS011;8482;54.396;18.590;2023-10-13T13:34:48;8.57;;;4.97;;
16727;SDS011;8482;54.396;18.590;2023-10-13T13:37:29;10.13;;;5.18;;
16727;SDS011;8482;54.396;18.590;2023-10-13T13:39:56;10.18;;;5.70;;
16727;SDS011;8482;54.396;18.590;2023-10-13T13:42:38;9.32;;;5.15;;
16727;SDS011;8482;54.396;18.590;2023-10-13T13:45:06;9.35;;;5.38;;
16727;SDS011;8482;54.396;18.590;2023-10-13T13:47:49;10.90;;;5.22;;
16727;SDS011;8482;54.396;18.590;2023-10-13T13:50:19;10.65;;;5.22;;
16727;SDS011;8482;54.396;18.590;2023-10-13T13:52:50;11.13;;;5.75;;
16727;SDS011;8482;54.396;18.590;2023-10-13T13:55:18;10.25;;;5.93;;
16727;SDS011;8482;54.396;18.590;2023-10-13T13:57:45;10.90;;;6.10;;
16727;SDS011;8482;54.396;18.590;2023-10-13T14:00:12;13.35;;;6.45;;
16727;SDS011;8482;54.396;18.590;2023-10-13T14:02:42;10.55;;;6.57;;
16727;SDS011;8482;54.396;18.590;2023-10-13T14:05:15;10.70;;;6.38;;
16727;SDS011;8482;54.396;18.590;2023-10-13T14:07:44;12.63;;;6.50;;
16727;SDS011;8482;54.396;18.590;2023-10-13T14:10:17;8.85;;;5.53;;
16727;SDS011;8482;54.396;18.590;2023-10-13T14:12:57;14.18;;;7.18;;
16727;SDS011;8482;54.396;18.590;2023-10-13T14:15:37;11.93;;;7.10;;
16727;SDS011;8482;54.396;18.590;2023-10-13T14:18:09;13.15;;;7.35;;
16727;SDS011;8482;54.396;18.590;2023-10-13T14:20:42;12.48;;;7.25;;
16727;SDS011;8482;54.396;18.590;2023-10-13T14:23:08;13.55;;;7.10;;
16727;SDS011;8482;54.396;18.590;2023-10-13T14:25:37;11.77;;;6.90;;
16727;SDS011;8482;54.396;18.590;2023-10-13T14:28:05;13.93;;;6.95;;
16727;SDS011;8482;54.396;18.590;2023-10-13T14:30:36;12.43;;;7.07;;
16727;SDS011;8482;54.396;18.590;2023-10-13T14:33:02;12.75;;;7.45;;
16727;SDS011;8482;54.396;18.590;2023-10-13T14:35:35;12.13;;;7.32;;
16727;SDS011;8482;54.396;18.590;2023-10-13T14:38:02;12.88;;;7.80;;
16727;SDS011;8482;54.396;18.590;2023-10-13T14:40:29;12.40;;;7.88;;
16727;SDS011;8482;54.396;18.590;2023-10-13T14:42:54;12.32;;;6.95;;
16727;SDS011;8482;54.396;18.590;2023-10-13T14:45:21;13.48;;;8.60;;
16727;SDS011;8482;54.396;18.590;2023-10-13T14:47:47;14.40;;;7.72;;
16727;SDS011;8482;54.396;18.590;2023-10-13T14:50:13;13.55;;;8.07;;
16727;SDS011;8482;54.396;18.590;2023-10-13T14:52:46;12.43;;;8.02;;
16727;SDS011;8482;54.396;18.590;2023-10-13T14:55:13;14.02;;;8.25;;
16727;SDS011;8482;54.396;18.590;2023-10-13T14:57:49;13.18;;;8.05;;
16727;SDS011;8482;54.396;18.590;2023-10-13T15:00:16;15.23;;;8.68;;
16727;SDS011;8482;54.396;18.590;2023-10-13T15:02:50;15.60;;;8.63;;
16727;SDS011;8482;54.396;18.590;2023-10-13T15:05:18;14.20;;;8.45;;
16727;SDS011;8482;54.396;18.590;2023-10-13T15:07:44;15.07;;;9.00;;
16727;SDS011;8482;54.396;18.590;2023-10-13T15:10:13;14.13;;;8.63;;
16727;SDS011;8482;54.396;18.590;2023-10-13T15:12:43;14.57;;;8.75;;
16727;SDS011;8482;54.396;18.590;2023-10-13T15:15:14;14.55;;;8.80;;
16727;SDS011;8482;54.396;18.590;2023-10-13T15:17:44;14.95;;;9.07;;
16727;SDS011;8482;54.396;18.590;2023-10-13T15:20:10;14.77;;;9.75;;
16727;SDS011;8482;54.396;18.590;2023-10-13T15:22:43;12.27;;;9.05;;
16727;SDS011;8482;54.396;18.590;2023-10-13T15:25:12;14.65;;;9.55;;
16727;SDS011;8482;54.396;18.590;2023-10-13T15:28:00;15.95;;;9.38;;
16727;SDS011;8482;54.396;18.590;2023-10-13T15:30:33;14.68;;;9.20;;
16727;SDS011;8482;54.396;18.590;2023-10-13T15:33:31;16.60;;;9.13;;
16727;SDS011;8482;54.396;18.590;2023-10-13T15:35:57;15.48;;;9.48;;
16727;SDS011;8482;54.396;18.590;2023-10-13T15:38:23;13.57;;;8.48;;
16727;SDS011;8482;54.396;18.590;2023-10-13T15:40:52;11.48;;;7.80;;
16727;SDS011;8482;54.396;18.590;2023-10-13T15:43:19;13.90;;;8.35;;
16727;SDS011;8482;54.396;18.590;2023-10-13T15:45:45;12.13;;;7.53;;
16727;SDS011;8482;54.396;18.590;2023-10-13T15:48:11;14.10;;;9.18;;